createdAt,value
2023-01-21T00:01:09.121Z,-1.50
2023-01-21T00:03:36.430Z,-1.40
2023-01-21T00:06:03.756Z,-1.50
2023-01-21T00:26:05.430Z,-1.70
2023-01-21T00:28:35.378Z,-1.60
2023-01-21T00:31:05.811Z,-1.60
2023-01-21T00:33:33.823Z,-1.70
2023-01-21T00:36:10.782Z,-1.70
2023-01-21T00:38:38.240Z,-1.80
2023-01-21T00:41:08.797Z,-1.70
2023-01-21T00:43:37.055Z,-1.90
2023-01-21T00:46:04.309Z,-1.90
2023-01-21T00:48:31.734Z,-1.80
2023-01-21T00:51:01.738Z,-1.90
2023-01-21T00:53:31.813Z,-1.70
2023-01-21T00:56:07.745Z,-1.70
2023-01-21T00:58:35.785Z,-1.90
2023-01-21T01:01:09.791Z,-2.00
2023-01-21T01:03:37.966Z,-2.00
2023-01-21T01:06:08.728Z,-1.90
2023-01-21T01:08:35.839Z,-1.90
2023-01-21T01:11:03.628Z,-2.00
2023-01-21T01:13:31.603Z,-1.90
2023-01-21T01:16:00.111Z,-2.00
2023-01-21T01:18:28.980Z,-2.10
2023-01-21T01:20:56.691Z,-2.20
2023-01-21T01:23:23.756Z,-2.10
2023-01-21T01:26:02.117Z,-2.20
2023-01-21T01:28:31.204Z,-2.20
2023-01-21T01:30:59.228Z,-2.20
2023-01-21T01:33:27.784Z,-2.30
2023-01-21T01:35:54.904Z,-2.40
2023-01-21T01:38:23.333Z,-2.40
2023-01-21T01:40:52.575Z,-2.30
2023-01-21T01:43:59.801Z,-2.50
2023-01-21T01:46:30.937Z,-2.60
2023-01-21T01:49:19.693Z,-2.50
2023-01-21T01:51:59.507Z,-2.80
2023-01-21T01:54:45.037Z,-2.90
2023-01-21T01:57:15.522Z,-2.80
2023-01-21T01:59:43.695Z,-2.90
2023-01-21T02:02:17.727Z,-3.40
2023-01-21T02:04:59.337Z,-3.10
2023-01-21T02:07:30.416Z,-3.20
2023-01-21T02:09:57.443Z,-3.30
2023-01-21T02:12:24.795Z,-3.20
2023-01-21T02:14:51.955Z,-3.40
2023-01-21T02:17:27.760Z,-3.30
2023-01-21T02:20:09.611Z,-3.20
2023-01-21T02:22:59.774Z,-3.20
2023-01-21T02:25:55.769Z,-3.30
2023-01-21T02:29:15.837Z,-3.10
2023-01-21T02:32:07.254Z,-3.10
2023-01-21T02:35:05.602Z,-3.20
2023-01-21T02:37:46.680Z,-3.20
2023-01-21T02:41:11.747Z,-3.20
2023-01-21T02:44:18.055Z,-3.30
2023-01-21T02:46:50.733Z,-3.20
2023-01-21T02:49:33.360Z,-3.40
2023-01-21T02:52:00.334Z,-3.30
2023-01-21T02:54:39.222Z,-3.30
2023-01-21T02:57:34.195Z,-3.40
2023-01-21T03:00:08.338Z,-3.40
2023-01-21T03:02:58.094Z,-3.30
2023-01-21T03:05:34.538Z,-3.40
2023-01-21T03:08:16.094Z,-3.30
2023-01-21T03:10:53.302Z,-3.30
2023-01-21T03:13:48.865Z,-3.40
2023-01-21T03:16:39.809Z,-3.40
2023-01-21T03:19:11.722Z,-3.30
2023-01-21T03:21:39.595Z,-3.50
2023-01-21T03:24:07.690Z,-3.60
2023-01-21T03:26:42.762Z,-3.60
2023-01-21T03:29:16.665Z,-3.50
2023-01-21T03:31:49.848Z,-3.50
2023-01-21T03:34:19.215Z,-3.50
2023-01-21T03:36:58.643Z,-3.60
2023-01-21T03:47:35.124Z,-3.70
2023-01-21T03:50:19.353Z,-3.60
2023-01-21T03:52:47.157Z,-3.70
2023-01-21T03:55:17.662Z,-3.80
2023-01-21T03:57:44.774Z,-3.90
2023-01-21T04:00:13.433Z,-3.90
2023-01-21T04:02:40.467Z,-4.00
2023-01-21T04:05:08.081Z,-4.00
2023-01-21T04:07:35.023Z,-4.00
2023-01-21T04:10:02.247Z,-4.00
2023-01-21T04:12:29.191Z,-4.00
2023-01-21T04:14:56.248Z,-3.90
2023-01-21T04:17:23.181Z,-3.80
2023-01-21T04:19:50.142Z,-3.70
2023-01-21T04:22:17.465Z,-3.40
2023-01-21T04:24:44.726Z,-3.10
2023-01-21T04:27:11.691Z,-2.80
2023-01-21T04:29:38.712Z,-2.60
2023-01-21T04:32:05.822Z,-2.60
2023-01-21T04:34:32.783Z,-2.60
2023-01-21T04:36:59.729Z,-2.50
2023-01-21T04:39:26.707Z,-2.50
2023-01-21T04:41:53.689Z,-2.70
2023-01-21T04:44:20.668Z,-2.80
2023-01-21T04:46:47.623Z,-2.80
2023-01-21T04:49:14.604Z,-2.80
2023-01-21T04:51:41.534Z,-2.90
2023-01-21T04:54:10.448Z,-3.00
2023-01-21T04:56:37.570Z,-2.90
2023-01-21T04:59:05.099Z,-3.00
2023-01-21T05:11:21.515Z,-3.20
2023-01-21T05:13:48.553Z,-3.10
2023-01-21T05:16:15.695Z,-3.20
2023-01-21T05:18:44.009Z,-3.30
2023-01-21T05:21:12.754Z,-3.20
2023-01-21T05:23:39.789Z,-3.40
2023-01-21T05:26:06.773Z,-3.30
2023-01-21T05:28:33.760Z,-3.40
2023-01-21T05:31:02.453Z,-3.40
2023-01-21T05:33:34.005Z,-3.40
2023-01-21T05:36:03.512Z,-3.50
2023-01-21T05:38:30.870Z,-3.50
2023-01-21T05:41:02.406Z,-3.50
2023-01-21T05:43:30.096Z,-3.50
2023-01-21T05:45:57.195Z,-3.70
2023-01-21T05:48:24.707Z,-3.70
2023-01-21T05:50:52.073Z,-3.60
2023-01-21T05:53:19.194Z,-3.80
2023-01-21T05:55:46.205Z,-3.80
2023-01-21T05:58:13.260Z,-3.70
2023-01-21T06:00:41.966Z,-3.70
2023-01-21T06:03:09.168Z,-3.80
2023-01-21T06:05:36.363Z,-3.70
2023-01-21T06:08:03.567Z,-3.80
2023-01-21T06:12:58.027Z,-3.70
2023-01-21T06:15:25.856Z,-3.60
2023-01-21T06:17:53.662Z,-3.70
2023-01-21T06:20:21.555Z,-3.60
2023-01-21T06:22:49.317Z,-3.60
2023-01-21T06:25:16.326Z,-3.40
2023-01-21T06:27:43.297Z,-3.50
2023-01-21T06:30:11.212Z,-3.50
2023-01-21T06:32:38.522Z,-3.50
2023-01-21T06:35:06.094Z,-3.30
2023-01-21T06:37:33.073Z,-3.30
2023-01-21T06:40:00.069Z,-3.30
2023-01-21T06:42:27.163Z,-3.20
2023-01-21T06:44:54.099Z,-3.30
2023-01-21T06:47:21.183Z,-3.30
2023-01-21T06:49:48.155Z,-3.20
2023-01-21T06:52:15.143Z,-3.10
2023-01-21T06:54:43.347Z,-3.20
2023-01-21T06:57:10.775Z,-3.10
2023-01-21T06:59:37.839Z,-3.00
2023-01-21T07:02:05.362Z,-2.90
2023-01-21T07:04:32.421Z,-2.90
2023-01-21T07:06:59.400Z,-2.80
2023-01-21T07:09:26.364Z,-2.70
2023-01-21T07:11:53.351Z,-2.70
2023-01-21T07:14:20.349Z,-2.40
2023-01-21T07:16:47.289Z,-2.50
2023-01-21T07:19:14.326Z,-2.30
2023-01-21T07:24:09.468Z,-2.20
2023-01-21T07:26:38.087Z,-2.00
2023-01-21T07:31:34.009Z,-2.00
2023-01-21T07:34:01.241Z,-2.00
2023-01-21T07:36:28.271Z,-1.80
2023-01-21T07:38:55.691Z,-1.80
2023-01-21T07:41:22.950Z,-1.70
2023-01-21T07:43:51.049Z,-1.50
2023-01-21T07:46:20.550Z,-1.50
2023-01-21T07:48:50.356Z,-1.40
2023-01-21T07:51:21.097Z,-1.40
2023-01-21T07:53:48.291Z,-1.30
2023-01-21T07:56:16.318Z,-1.30
2023-01-21T07:58:43.340Z,-1.20
2023-01-21T08:01:10.551Z,-1.40
2023-01-21T08:03:38.120Z,-1.20
2023-01-21T08:06:06.328Z,-1.30
2023-01-21T08:08:33.765Z,-1.10
2023-01-21T08:11:00.720Z,-1.30
2023-01-21T08:13:27.713Z,-1.10
2023-01-21T08:15:56.497Z,-1.00
2023-01-21T08:18:24.981Z,-0.90
2023-01-21T08:20:57.239Z,-1.10
2023-01-21T08:23:25.474Z,-0.90
2023-01-21T08:25:53.017Z,-1.10
2023-01-21T08:28:20.103Z,-0.90
2023-01-21T08:30:47.077Z,-0.80
2023-01-21T08:33:14.141Z,-0.70
2023-01-21T08:35:41.162Z,-0.80
2023-01-21T08:38:08.191Z,-0.80
2023-01-21T08:40:35.109Z,-0.80
2023-01-21T08:43:04.823Z,-0.80
2023-01-21T08:45:32.038Z,-0.60
2023-01-21T08:47:59.075Z,-0.70
2023-01-21T08:50:26.070Z,-0.60
2023-01-21T08:52:54.667Z,-0.50
2023-01-21T08:55:25.220Z,-0.50
2023-01-21T08:57:53.501Z,-0.40
2023-01-21T09:00:21.969Z,-0.40
2023-01-21T09:02:51.423Z,-0.30
2023-01-21T09:05:19.111Z,-0.30
2023-01-21T09:07:47.050Z,-0.30
2023-01-21T09:10:34.182Z,-0.20
2023-01-21T09:13:08.762Z,-0.20
2023-01-21T09:15:43.259Z,-0.30
2023-01-21T09:18:10.248Z,-0.20
2023-01-21T09:20:37.913Z,-0.20
2023-01-21T09:23:24.210Z,-0.10
2023-01-21T09:26:00.963Z,0.00
2023-01-21T09:28:29.289Z,0.00
2023-01-21T09:31:03.387Z,0.10
2023-01-21T09:33:32.635Z,0.00
2023-01-21T09:38:29.771Z,-0.10
2023-01-21T09:41:11.701Z,0.10
2023-01-21T09:43:45.429Z,0.30
2023-01-21T09:47:03.796Z,0.40
2023-01-21T09:49:49.844Z,0.40
2023-01-21T09:55:20.307Z,0.40
2023-01-21T09:58:17.493Z,0.40
2023-01-21T10:03:46.563Z,0.40
2023-01-21T10:07:10.369Z,0.60
2023-01-21T10:10:02.131Z,0.70
2023-01-21T10:13:00.105Z,0.80
2023-01-21T10:16:00.348Z,0.60
2023-01-21T10:18:31.534Z,0.70
2023-01-21T10:21:34.078Z,0.80
2023-01-21T10:24:13.235Z,0.90
2023-01-21T10:26:43.115Z,0.70
2023-01-21T10:29:19.512Z,0.90
2023-01-21T10:32:03.201Z,0.70
2023-01-21T10:34:33.343Z,0.80
2023-01-21T10:37:32.097Z,0.80
2023-01-21T10:40:14.031Z,0.80
2023-01-21T10:43:01.939Z,0.90
2023-01-21T10:45:46.691Z,1.00
2023-01-21T10:48:40.195Z,0.90
2023-01-21T10:51:38.503Z,0.90
2023-01-21T10:55:12.765Z,1.00
2023-01-21T10:57:55.632Z,1.00
2023-01-21T11:00:43.157Z,0.90
2023-01-21T11:03:51.110Z,0.80
2023-01-21T11:06:20.464Z,0.60
2023-01-21T11:08:54.673Z,0.30
2023-01-21T11:11:31.694Z,0.30
2023-01-21T11:13:59.037Z,0.50
2023-01-21T11:16:44.657Z,0.30
2023-01-21T11:19:18.341Z,0.30
2023-01-21T11:22:06.834Z,0.50
2023-01-21T11:24:45.295Z,0.60
2023-01-21T11:27:23.253Z,0.60
2023-01-21T11:29:50.693Z,0.70
2023-01-21T11:32:22.318Z,0.90
2023-01-21T11:34:52.734Z,1.00
2023-01-21T11:37:29.327Z,1.00
2023-01-21T11:40:10.521Z,0.80
2023-01-21T11:42:52.539Z,0.80
2023-01-21T11:45:36.765Z,0.80
2023-01-21T11:48:20.597Z,0.80
2023-01-21T11:50:47.747Z,0.90
2023-01-21T11:53:18.227Z,0.80
2023-01-21T11:55:51.932Z,0.60
2023-01-21T11:58:20.140Z,0.70
2023-01-21T12:00:50.694Z,0.90
2023-01-21T12:03:26.508Z,0.70
2023-01-21T12:05:54.044Z,0.90
2023-01-21T12:08:23.874Z,0.70
2023-01-21T12:10:53.686Z,0.80
2023-01-21T12:13:47.685Z,0.90
2023-01-21T12:16:29.532Z,0.80
2023-01-21T12:19:35.934Z,0.90
2023-01-21T12:22:53.249Z,0.90
2023-01-21T12:25:31.740Z,0.80
2023-01-21T12:28:27.683Z,0.80
2023-01-21T12:31:23.967Z,0.80
2023-01-21T12:34:01.748Z,0.70
2023-01-21T12:36:53.141Z,0.90
2023-01-21T12:39:27.011Z,1.00
2023-01-21T12:42:19.542Z,1.10
2023-01-21T12:44:53.436Z,1.20
2023-01-21T12:47:23.320Z,1.20
2023-01-21T12:49:58.797Z,1.00
2023-01-21T12:52:32.198Z,1.00
2023-01-21T12:55:12.654Z,0.90
2023-01-21T12:57:54.146Z,0.80
2023-01-21T13:03:10.627Z,1.00
2023-01-21T13:09:03.630Z,1.00
2023-01-21T13:11:42.980Z,0.90
2023-01-21T13:14:09.846Z,0.90
2023-01-21T13:16:41.170Z,0.70
2023-01-21T13:19:13.135Z,0.90
2023-01-21T13:21:50.563Z,0.90
2023-01-21T13:27:53.028Z,0.60
2023-01-21T13:30:34.821Z,0.60
2023-01-21T13:33:19.798Z,0.40
2023-01-21T13:36:44.322Z,0.40
2023-01-21T13:42:06.406Z,0.60
2023-01-21T13:45:02.682Z,0.70
2023-01-21T13:48:29.387Z,0.80
2023-01-21T14:01:49.808Z,0.60
2023-01-21T14:05:07.008Z,0.80
2023-01-21T14:07:39.125Z,0.90
2023-01-21T14:13:10.558Z,0.90
2023-01-21T14:16:11.779Z,0.90
2023-01-21T14:19:00.397Z,0.70
2023-01-21T14:21:54.682Z,0.60
2023-01-21T14:27:37.560Z,0.50
2023-01-21T14:33:03.411Z,0.30
2023-01-21T14:38:52.607Z,0.90
2023-01-21T14:43:50.370Z,0.20
2023-01-21T14:51:49.444Z,-0.30
2023-01-21T14:57:13.791Z,-0.10
2023-01-21T14:59:46.282Z,0.30
2023-01-21T18:52:17.843Z,0.40
2023-01-21T18:54:45.164Z,0.50
2023-01-21T18:57:19.301Z,0.60
2023-01-21T18:59:46.314Z,0.50
2023-01-21T19:02:20.058Z,0.60
2023-01-21T19:04:47.682Z,0.50
2023-01-21T19:07:20.611Z,0.50
2023-01-21T19:09:50.740Z,0.40
2023-01-21T19:12:21.180Z,0.60
2023-01-21T19:14:49.160Z,0.40
2023-01-21T19:17:27.686Z,0.40
2023-01-21T19:19:55.368Z,0.40
2023-01-21T19:22:22.681Z,0.50
2023-01-21T19:24:49.950Z,0.40
2023-01-21T19:27:26.320Z,0.40
2023-01-21T19:29:53.286Z,0.50
2023-01-21T19:32:20.515Z,0.40
2023-01-21T19:34:47.502Z,0.30
2023-01-21T19:37:17.215Z,0.20
2023-01-21T19:39:44.354Z,0.30
2023-01-21T19:42:14.376Z,0.40
2023-01-21T19:44:41.887Z,0.20
2023-01-21T19:47:26.332Z,0.20
2023-01-21T19:49:53.239Z,0.10
2023-01-21T19:52:20.188Z,0.30
2023-01-21T19:54:47.151Z,0.10
2023-01-21T19:57:16.053Z,0.20
2023-01-21T19:59:44.857Z,0.20
2023-01-21T20:02:13.967Z,0.10
2023-01-21T20:04:40.949Z,0.10
2023-01-21T20:07:14.407Z,0.40
2023-01-21T20:09:41.383Z,0.30
2023-01-21T20:12:12.359Z,0.30
2023-01-21T20:14:39.313Z,0.30
2023-01-21T20:17:06.394Z,0.30
2023-01-21T20:19:33.388Z,0.30
2023-01-21T20:22:02.532Z,0.30
2023-01-21T20:24:33.455Z,0.50
2023-01-21T20:27:03.078Z,0.50
2023-01-21T20:29:30.099Z,0.40
2023-01-21T20:31:58.269Z,0.20
2023-01-21T20:34:27.661Z,0.40
2023-01-21T20:36:55.813Z,0.30
2023-01-21T20:39:22.931Z,0.40
2023-01-21T20:41:49.866Z,0.40
2023-01-21T20:44:16.822Z,0.20
2023-01-21T20:49:13.321Z,0.10
2023-01-21T20:51:40.357Z,0.40
2023-01-21T20:54:07.302Z,0.40
2023-01-21T20:56:34.417Z,0.40
2023-01-21T20:59:01.386Z,0.40
2023-01-21T21:01:29.176Z,0.30
2023-01-21T21:03:56.252Z,0.30
2023-01-21T21:06:27.962Z,0.20
2023-01-21T21:08:55.564Z,0.30
2023-01-21T21:11:22.892Z,0.30
2023-01-21T21:13:52.185Z,0.10
2023-01-21T21:16:31.868Z,0.30
2023-01-21T21:19:00.546Z,0.30
2023-01-21T21:21:28.192Z,0.20
2023-01-21T21:23:55.265Z,0.20
2023-01-21T21:26:25.631Z,0.10
2023-01-21T21:28:57.619Z,0.00
2023-01-21T21:31:26.925Z,0.20
2023-01-21T21:33:54.034Z,0.10
2023-01-21T21:36:23.800Z,0.00
2023-01-21T21:38:52.245Z,-0.10
2023-01-21T21:41:40.735Z,0.00
2023-01-21T21:44:09.300Z,0.00
2023-01-21T21:46:58.826Z,-0.10
2023-01-21T21:49:26.661Z,0.00
2023-01-21T21:51:53.827Z,0.00
2023-01-21T21:54:21.317Z,-0.10
2023-01-21T21:56:48.308Z,0.10
2023-01-21T21:59:15.874Z,0.00
2023-01-21T22:01:43.995Z,0.00
2023-01-21T22:04:11.489Z,-0.20
2023-01-21T22:06:38.909Z,0.00
2023-01-21T22:09:06.900Z,0.00
2023-01-21T22:11:34.173Z,0.00
2023-01-21T22:14:03.995Z,-0.10
2023-01-21T22:16:32.305Z,-0.10
2023-01-21T22:19:00.424Z,0.20
2023-01-21T22:21:33.378Z,0.00
2023-01-21T22:24:08.268Z,0.10
2023-01-21T22:26:35.798Z,0.00
2023-01-21T22:29:04.629Z,0.10
2023-01-21T22:31:33.109Z,0.10
2023-01-21T22:34:00.852Z,-0.10
2023-01-21T22:36:30.227Z,-0.10
2023-01-21T22:38:57.754Z,0.10
2023-01-21T22:41:25.673Z,-0.10
2023-01-21T22:43:53.501Z,0.00
2023-01-21T22:46:31.524Z,0.10
2023-01-21T22:48:58.805Z,-0.10
2023-01-21T22:51:26.263Z,0.10
2023-01-21T22:53:54.098Z,0.10
2023-01-21T22:56:39.805Z,0.10
2023-01-21T22:59:11.053Z,0.00
2023-01-21T23:01:38.161Z,-0.20
2023-01-21T23:04:05.425Z,0.10
2023-01-21T23:06:32.417Z,-0.10
2023-01-21T23:08:59.464Z,0.10
2023-01-21T23:11:26.485Z,0.00
2023-01-21T23:13:55.207Z,0.00
2023-01-21T23:16:22.385Z,-0.10
2023-01-21T23:18:49.517Z,0.20
2023-01-21T23:21:20.521Z,0.20
2023-01-21T23:23:48.200Z,0.00
2023-01-21T23:26:15.762Z,0.00
2023-01-21T23:28:43.212Z,0.20
2023-01-21T23:31:16.952Z,0.10
2023-01-21T23:33:44.220Z,0.00
2023-01-21T23:36:15.784Z,0.20
2023-01-21T23:38:43.593Z,0.20
2023-01-21T23:41:14.216Z,0.20
2023-01-21T23:43:41.407Z,0.30
2023-01-21T23:46:12.227Z,0.10
2023-01-21T23:48:39.746Z,0.20
2023-01-21T23:51:11.100Z,0.20
2023-01-21T23:53:38.232Z,0.00
2023-01-21T23:56:18.330Z,0.00
2023-01-21T23:58:45.311Z,0.00
